Terminal Aerodrome Forecast
Issued by NWS

Home | Current Version | Previous Version | Graphics & Text | Print | Product List | Glossary On
Versions: 1 2 3 4 5 6 7 8 9 10 11 12 13 14 15 16 17 18 19 20 21 22 23
000
FTUS43 KDLH 020648 AAB
TAFHYR
TAF AMD
KHYR 020648Z 0207/0306 00000KT 3SM HZ BR VCTS BKN050CB
      TEMPO 0207/0210 3/4SM -TSRA BR
     FM021000 16005KT 1 1/2SM HZ BR VCTS SCT015 BKN060CB
      TEMPO 0210/0213 1/2SM FG
     FM021400 13006KT P6SM VCTS SCT030 BKN080CB
     FM021700 15007KT P6SM SCT080
     FM030100 10004KT 6SM HZ BR SKC=

USA.gov is the U.S. government's official web portal to all federal, state and local government web resources and services.